sensor_id;sensor_type;location;lat;lon;timestamp;temperature;humidity
67603;DHT22;54417;47.454;18.918;2023-06-22T00:03:52;20.77;88.23
67603;DHT22;54417;47.454;18.918;2023-06-22T00:09:01;20.57;88.66
67603;DHT22;54417;47.454;18.918;2023-06-22T00:14:12;20.43;89.12
67603;DHT22;54417;47.454;18.918;2023-06-22T00:19:20;20.32;90.08
67603;DHT22;54417;47.454;18.918;2023-06-22T00:24:29;20.33;91.00
67603;DHT22;54417;47.454;18.918;2023-06-22T00:29:39;20.16;91.46
67603;DHT22;54417;47.454;18.918;2023-06-22T00:34:48;20.12;91.67
67603;DHT22;54417;47.454;18.918;2023-06-22T00:39:57;20.02;92.08
67603;DHT22;54417;47.454;18.918;2023-06-22T00:45:08;19.99;90.84
67603;DHT22;54417;47.454;18.918;2023-06-22T00:50:22;19.99;91.59
67603;DHT22;54417;47.454;18.918;2023-06-22T00:55:31;20.02;90.62
67603;DHT22;54417;47.454;18.918;2023-06-22T01:00:36;19.96;91.72
67603;DHT22;54417;47.454;18.918;2023-06-22T01:05:46;19.98;91.36
67603;DHT22;54417;47.454;18.918;2023-06-22T01:11:01;19.99;91.45
67603;DHT22;54417;47.454;18.918;2023-06-22T01:16:16;19.74;93.08
67603;DHT22;54417;47.454;18.918;2023-06-22T01:21:28;19.61;93.20
67603;DHT22;54417;47.454;18.918;2023-06-22T01:26:43;19.57;93.42
67603;DHT22;54417;47.454;18.918;2023-06-22T01:31:57;19.47;93.52
67603;DHT22;54417;47.454;18.918;2023-06-22T01:37:08;19.38;93.98
67603;DHT22;54417;47.454;18.918;2023-06-22T01:42:17;19.31;94.00
67603;DHT22;54417;47.454;18.918;2023-06-22T01:47:28;19.34;93.97
67603;DHT22;54417;47.454;18.918;2023-06-22T01:52:37;19.24;93.91
67603;DHT22;54417;47.454;18.918;2023-06-22T01:57:45;19.24;93.93
67603;DHT22;54417;47.454;18.918;2023-06-22T02:02:59;19.30;93.94
67603;DHT22;54417;47.454;18.918;2023-06-22T02:08:13;19.19;93.53
67603;DHT22;54417;47.454;18.918;2023-06-22T02:13:24;19.08;93.65
67603;DHT22;54417;47.454;18.918;2023-06-22T02:18:35;19.02;93.94
67603;DHT22;54417;47.454;18.918;2023-06-22T02:23:44;19.03;94.13
67603;DHT22;54417;47.454;18.918;2023-06-22T02:28:53;19.05;93.62
67603;DHT22;54417;47.454;18.918;2023-06-22T02:33:58;19.00;93.56
67603;DHT22;54417;47.454;18.918;2023-06-22T02:39:07;19.00;92.94
67603;DHT22;54417;47.454;18.918;2023-06-22T02:44:17;19.03;92.71
67603;DHT22;54417;47.454;18.918;2023-06-22T02:49:29;19.09;92.54
67603;DHT22;54417;47.454;18.918;2023-06-22T02:54:33;19.08;92.57
67603;DHT22;54417;47.454;18.918;2023-06-22T02:59:37;19.00;91.91
67603;DHT22;54417;47.454;18.918;2023-06-22T03:04:46;18.96;91.88
67603;DHT22;54417;47.454;18.918;2023-06-22T03:09:51;18.94;92.43
67603;DHT22;54417;47.454;18.918;2023-06-22T03:15:00;18.89;91.93
67603;DHT22;54417;47.454;18.918;2023-06-22T03:20:07;18.89;92.11
67603;DHT22;54417;47.454;18.918;2023-06-22T03:25:13;18.98;91.99
67603;DHT22;54417;47.454;18.918;2023-06-22T03:30:21;19.08;92.32
67603;DHT22;54417;47.454;18.918;2023-06-22T03:35:31;18.96;91.86
67603;DHT22;54417;47.454;18.918;2023-06-22T03:40:40;19.13;92.17
67603;DHT22;54417;47.454;18.918;2023-06-22T03:45:49;19.33;92.04
67603;DHT22;54417;47.454;18.918;2023-06-22T03:50:59;19.44;91.35
67603;DHT22;54417;47.454;18.918;2023-06-22T03:56:08;19.49;90.74
67603;DHT22;54417;47.454;18.918;2023-06-22T04:01:17;19.63;90.92
67603;DHT22;54417;47.454;18.918;2023-06-22T04:06:23;19.79;90.71
67603;DHT22;54417;47.454;18.918;2023-06-22T04:11:32;19.91;90.79
67603;DHT22;54417;47.454;18.918;2023-06-22T04:16:35;20.16;90.06
67603;DHT22;54417;47.454;18.918;2023-06-22T04:21:46;20.40;89.68
67603;DHT22;54417;47.454;18.918;2023-06-22T04:26:56;20.84;87.58
67603;DHT22;54417;47.454;18.918;2023-06-22T04:32:06;21.15;86.41
67603;DHT22;54417;47.454;18.918;2023-06-22T04:37:16;21.50;87.41
67603;DHT22;54417;47.454;18.918;2023-06-22T04:42:26;21.92;85.38
67603;DHT22;54417;47.454;18.918;2023-06-22T04:47:30;22.06;83.95
67603;DHT22;54417;47.454;18.918;2023-06-22T04:52:40;22.30;85.60
67603;DHT22;54417;47.454;18.918;2023-06-22T04:57:43;22.56;84.96
67603;DHT22;54417;47.454;18.918;2023-06-22T05:02:56;22.68;84.20
67603;DHT22;54417;47.454;18.918;2023-06-22T05:08:26;22.52;82.77
67603;DHT22;54417;47.454;18.918;2023-06-22T05:13:36;22.56;83.02
67603;DHT22;54417;47.454;18.918;2023-06-22T05:18:44;22.75;83.19
67603;DHT22;54417;47.454;18.918;2023-06-22T05:23:55;22.98;83.70
67603;DHT22;54417;47.454;18.918;2023-06-22T05:29:07;23.12;82.79
67603;DHT22;54417;47.454;18.918;2023-06-22T05:34:16;23.54;81.04
67603;DHT22;54417;47.454;18.918;2023-06-22T05:39:26;23.82;79.34
67603;DHT22;54417;47.454;18.918;2023-06-22T05:44:35;23.72;78.56
67603;DHT22;54417;47.454;18.918;2023-06-22T05:49:44;23.84;78.23
67603;DHT22;54417;47.454;18.918;2023-06-22T05:54:54;24.10;80.69
67603;DHT22;54417;47.454;18.918;2023-06-22T06:00:04;24.30;78.32
67603;DHT22;54417;47.454;18.918;2023-06-22T06:05:15;24.56;77.47
67603;DHT22;54417;47.454;18.918;2023-06-22T06:10:26;25.01;77.91
67603;DHT22;54417;47.454;18.918;2023-06-22T06:15:37;24.99;74.28
67603;DHT22;54417;47.454;18.918;2023-06-22T06:20:46;25.12;73.79
67603;DHT22;54417;47.454;18.918;2023-06-22T06:25:56;25.43;73.08
67603;DHT22;54417;47.454;18.918;2023-06-22T06:31:05;25.47;71.30
67603;DHT22;54417;47.454;18.918;2023-06-22T06:36:14;25.83;71.06
67603;DHT22;54417;47.454;18.918;2023-06-22T06:41:25;26.00;71.45
67603;DHT22;54417;47.454;18.918;2023-06-22T06:46:34;25.94;69.17
67603;DHT22;54417;47.454;18.918;2023-06-22T06:51:43;26.10;70.11
67603;DHT22;54417;47.454;18.918;2023-06-22T06:56:53;26.28;68.57
67603;DHT22;54417;47.454;18.918;2023-06-22T07:02:02;26.62;66.32
67603;DHT22;54417;47.454;18.918;2023-06-22T07:07:06;26.89;64.76
67603;DHT22;54417;47.454;18.918;2023-06-22T07:12:16;27.00;63.59
67603;DHT22;54417;47.454;18.918;2023-06-22T07:17:24;27.33;63.78
67603;DHT22;54417;47.454;18.918;2023-06-22T07:22:33;27.58;61.56
67603;DHT22;54417;47.454;18.918;2023-06-22T07:27:40;27.72;61.68
67603;DHT22;54417;47.454;18.918;2023-06-22T07:32:50;28.08;62.69
67603;DHT22;54417;47.454;18.918;2023-06-22T07:37:59;28.29;58.36
67603;DHT22;54417;47.454;18.918;2023-06-22T07:43:13;28.92;57.56
67603;DHT22;54417;47.454;18.918;2023-06-22T07:48:22;28.94;58.54
67603;DHT22;54417;47.454;18.918;2023-06-22T07:53:31;28.74;59.03
67603;DHT22;54417;47.454;18.918;2023-06-22T07:58:41;28.98;57.70
67603;DHT22;54417;47.454;18.918;2023-06-22T08:03:50;29.11;58.99
67603;DHT22;54417;47.454;18.918;2023-06-22T08:08:54;29.36;57.10
67603;DHT22;54417;47.454;18.918;2023-06-22T08:14:07;29.58;56.36
67603;DHT22;54417;47.454;18.918;2023-06-22T08:19:16;29.69;55.96
67603;DHT22;54417;47.454;18.918;2023-06-22T08:24:20;30.18;55.53
67603;DHT22;54417;47.454;18.918;2023-06-22T08:29:30;30.17;54.52
67603;DHT22;54417;47.454;18.918;2023-06-22T08:34:34;30.42;56.50
67603;DHT22;54417;47.454;18.918;2023-06-22T08:39:38;30.86;54.57
67603;DHT22;54417;47.454;18.918;2023-06-22T08:44:49;31.13;53.25
67603;DHT22;54417;47.454;18.918;2023-06-22T08:49:57;31.24;53.89
67603;DHT22;54417;47.454;18.918;2023-06-22T08:55:07;31.02;52.69
67603;DHT22;54417;47.454;18.918;2023-06-22T09:00:19;31.02;56.15
67603;DHT22;54417;47.454;18.918;2023-06-22T09:05:29;31.45;53.77
67603;DHT22;54417;47.454;18.918;2023-06-22T09:10:38;31.71;54.68
67603;DHT22;54417;47.454;18.918;2023-06-22T09:15:49;31.92;55.19
67603;DHT22;54417;47.454;18.918;2023-06-22T09:20:58;31.88;51.85
67603;DHT22;54417;47.454;18.918;2023-06-22T09:26:08;31.75;51.43
67603;DHT22;54417;47.454;18.918;2023-06-22T09:31:18;31.92;54.54
67603;DHT22;54417;47.454;18.918;2023-06-22T09:36:33;32.39;53.44
67603;DHT22;54417;47.454;18.918;2023-06-22T09:41:42;32.16;50.70
67603;DHT22;54417;47.454;18.918;2023-06-22T09:46:52;31.77;52.27
67603;DHT22;54417;47.454;18.918;2023-06-22T09:52:01;31.95;51.17
67603;DHT22;54417;47.454;18.918;2023-06-22T09:57:10;32.25;52.67
67603;DHT22;54417;47.454;18.918;2023-06-22T10:02:20;32.35;52.45
67603;DHT22;54417;47.454;18.918;2023-06-22T10:07:29;31.96;50.92
67603;DHT22;54417;47.454;18.918;2023-06-22T10:12:33;31.67;52.41
67603;DHT22;54417;47.454;18.918;2023-06-22T10:17:44;32.15;53.99
67603;DHT22;54417;47.454;18.918;2023-06-22T10:22:53;32.16;52.81
67603;DHT22;54417;47.454;18.918;2023-06-22T10:28:04;32.46;51.59
67603;DHT22;54417;47.454;18.918;2023-06-22T10:33:14;32.57;52.97
67603;DHT22;54417;47.454;18.918;2023-06-22T10:38:23;32.22;51.03
67603;DHT22;54417;47.454;18.918;2023-06-22T10:43:32;32.09;51.28
67603;DHT22;54417;47.454;18.918;2023-06-22T10:48:42;32.20;50.76
67603;DHT22;54417;47.454;18.918;2023-06-22T10:53:51;32.50;52.88
67603;DHT22;54417;47.454;18.918;2023-06-22T10:58:59;32.39;51.81
67603;DHT22;54417;47.454;18.918;2023-06-22T11:04:06;32.28;50.99
67603;DHT22;54417;47.454;18.918;2023-06-22T11:09:15;32.28;50.87
67603;DHT22;54417;47.454;18.918;2023-06-22T11:14:29;32.35;51.51
67603;DHT22;54417;47.454;18.918;2023-06-22T11:19:39;32.46;49.74
67603;DHT22;54417;47.454;18.918;2023-06-22T11:24:48;32.71;50.69
67603;DHT22;54417;47.454;18.918;2023-06-22T11:29:56;32.90;50.89
67603;DHT22;54417;47.454;18.918;2023-06-22T11:35:07;33.26;51.21
67603;DHT22;54417;47.454;18.918;2023-06-22T11:40:16;33.48;47.16
67603;DHT22;54417;47.454;18.918;2023-06-22T11:45:25;33.05;49.20
67603;DHT22;54417;47.454;18.918;2023-06-22T11:50:35;33.07;49.04
67603;DHT22;54417;47.454;18.918;2023-06-22T11:55:44;33.41;47.40
67603;DHT22;54417;47.454;18.918;2023-06-22T12:00:53;33.73;47.08
67603;DHT22;54417;47.454;18.918;2023-06-22T12:06:04;33.48;46.43
67603;DHT22;54417;47.454;18.918;2023-06-22T12:11:13;33.52;46.62
67603;DHT22;54417;47.454;18.918;2023-06-22T12:16:22;33.39;45.53
67603;DHT22;54417;47.454;18.918;2023-06-22T12:21:28;33.49;46.44
67603;DHT22;54417;47.454;18.918;2023-06-22T12:26:37;33.82;45.25
67603;DHT22;54417;47.454;18.918;2023-06-22T12:31:45;33.36;45.65
67603;DHT22;54417;47.454;18.918;2023-06-22T12:36:56;33.80;46.01
67603;DHT22;54417;47.454;18.918;2023-06-22T12:42:05;34.27;45.53
67603;DHT22;54417;47.454;18.918;2023-06-22T12:47:16;34.37;45.75
67603;DHT22;54417;47.454;18.918;2023-06-22T12:52:26;34.71;47.87
67603;DHT22;54417;47.454;18.918;2023-06-22T12:57:35;34.78;45.33
67603;DHT22;54417;47.454;18.918;2023-06-22T13:02:43;34.62;43.60
67603;DHT22;54417;47.454;18.918;2023-06-22T13:07:49;34.01;46.07
67603;DHT22;54417;47.454;18.918;2023-06-22T13:12:58;34.13;45.62
67603;DHT22;54417;47.454;18.918;2023-06-22T13:18:08;34.43;46.49
67603;DHT22;54417;47.454;18.918;2023-06-22T13:23:18;34.68;43.67
67603;DHT22;54417;47.454;18.918;2023-06-22T13:28:27;34.81;43.96
67603;DHT22;54417;47.454;18.918;2023-06-22T13:33:37;34.96;43.32
67603;DHT22;54417;47.454;18.918;2023-06-22T13:38:49;34.88;44.80
67603;DHT22;54417;47.454;18.918;2023-06-22T13:43:58;34.94;44.57
67603;DHT22;54417;47.454;18.918;2023-06-22T13:49:07;34.64;43.65
67603;DHT22;54417;47.454;18.918;2023-06-22T13:54:17;34.84;46.29
67603;DHT22;54417;47.454;18.918;2023-06-22T13:59:28;34.91;43.92
67603;DHT22;54417;47.454;18.918;2023-06-22T14:04:38;34.94;43.10
67603;DHT22;54417;47.454;18.918;2023-06-22T14:09:48;34.69;44.35
67603;DHT22;54417;47.454;18.918;2023-06-22T14:14:57;35.06;43.83
67603;DHT22;54417;47.454;18.918;2023-06-22T14:20:07;35.32;44.43
67603;DHT22;54417;47.454;18.918;2023-06-22T14:25:17;35.46;43.88
67603;DHT22;54417;47.454;18.918;2023-06-22T14:30:26;35.29;43.14
67603;DHT22;54417;47.454;18.918;2023-06-22T14:35:35;35.07;41.52
67603;DHT22;54417;47.454;18.918;2023-06-22T14:40:45;35.07;44.75
67603;DHT22;54417;47.454;18.918;2023-06-22T14:46:14;35.29;43.97
67603;DHT22;54417;47.454;18.918;2023-06-22T14:51:23;35.92;42.36
67603;DHT22;54417;47.454;18.918;2023-06-22T14:56:29;38.15;38.88
67603;DHT22;54417;47.454;18.918;2023-06-22T15:01:39;40.24;35.28
67603;DHT22;54417;47.454;18.918;2023-06-22T15:06:49;41.16;33.65
67603;DHT22;54417;47.454;18.918;2023-06-22T15:11:59;42.12;33.82
67603;DHT22;54417;47.454;18.918;2023-06-22T15:17:13;43.02;32.61
67603;DHT22;54417;47.454;18.918;2023-06-22T15:22:22;43.10;30.83
67603;DHT22;54417;47.454;18.918;2023-06-22T15:27:33;42.62;32.00
67603;DHT22;54417;47.454;18.918;2023-06-22T15:32:43;42.63;32.56
67603;DHT22;54417;47.454;18.918;2023-06-22T15:37:48;42.84;32.27
67603;DHT22;54417;47.454;18.918;2023-06-22T15:43:00;43.45;33.88
67603;DHT22;54417;47.454;18.918;2023-06-22T15:48:08;42.33;32.80
67603;DHT22;54417;47.454;18.918;2023-06-22T15:53:17;40.24;37.48
67603;DHT22;54417;47.454;18.918;2023-06-22T15:58:27;38.68;40.26
67603;DHT22;54417;47.454;18.918;2023-06-22T16:03:36;37.13;41.74
67603;DHT22;54417;47.454;18.918;2023-06-22T16:08:46;36.45;42.12
67603;DHT22;54417;47.454;18.918;2023-06-22T16:13:56;35.97;43.69
67603;DHT22;54417;47.454;18.918;2023-06-22T16:19:05;35.65;44.30
67603;DHT22;54417;47.454;18.918;2023-06-22T16:24:14;36.04;45.35
67603;DHT22;54417;47.454;18.918;2023-06-22T16:29:24;36.49;44.73
67603;DHT22;54417;47.454;18.918;2023-06-22T16:34:33;36.39;45.29
67603;DHT22;54417;47.454;18.918;2023-06-22T16:39:42;35.56;45.46
67603;DHT22;54417;47.454;18.918;2023-06-22T16:44:52;34.92;48.97
67603;DHT22;54417;47.454;18.918;2023-06-22T16:50:01;34.13;51.72
67603;DHT22;54417;47.454;18.918;2023-06-22T16:55:10;33.63;51.85
67603;DHT22;54417;47.454;18.918;2023-06-22T17:00:21;33.12;54.07
67603;DHT22;54417;47.454;18.918;2023-06-22T17:05:31;32.92;52.31
67603;DHT22;54417;47.454;18.918;2023-06-22T17:10:40;32.57;53.64
67603;DHT22;54417;47.454;18.918;2023-06-22T17:15:55;32.09;57.06
67603;DHT22;54417;47.454;18.918;2023-06-22T17:21:04;31.71;57.82
67603;DHT22;54417;47.454;18.918;2023-06-22T17:26:14;31.31;59.24
67603;DHT22;54417;47.454;18.918;2023-06-22T17:31:25;31.13;60.94
67603;DHT22;54417;47.454;18.918;2023-06-22T17:36:39;30.72;62.77
67603;DHT22;54417;47.454;18.918;2023-06-22T17:41:44;30.51;64.80
67603;DHT22;54417;47.454;18.918;2023-06-22T17:46:57;30.34;65.95
67603;DHT22;54417;47.454;18.918;2023-06-22T17:52:15;30.11;67.43
67603;DHT22;54417;47.454;18.918;2023-06-22T17:57:24;29.86;68.73
67603;DHT22;54417;47.454;18.918;2023-06-22T18:02:36;29.67;69.89
67603;DHT22;54417;47.454;18.918;2023-06-22T18:07:46;29.46;70.28
67603;DHT22;54417;47.454;18.918;2023-06-22T18:12:53;29.23;71.44
67603;DHT22;54417;47.454;18.918;2023-06-22T18:18:05;28.87;72.04
67603;DHT22;54417;47.454;18.918;2023-06-22T18:23:17;28.67;72.58
67603;DHT22;54417;47.454;18.918;2023-06-22T18:28:26;28.43;73.32
67603;DHT22;54417;47.454;18.918;2023-06-22T18:33:36;28.02;73.85
67603;DHT22;54417;47.454;18.918;2023-06-22T18:38:41;27.47;75.75
67603;DHT22;54417;47.454;18.918;2023-06-22T18:43:52;27.33;76.65
67603;DHT22;54417;47.454;18.918;2023-06-22T18:54:32;26.67;78.27
67603;DHT22;54417;47.454;18.918;2023-06-22T18:59:45;26.49;78.57
67603;DHT22;54417;47.454;18.918;2023-06-22T19:05:05;26.32;79.10
67603;DHT22;54417;47.454;18.918;2023-06-22T19:10:25;26.08;79.89
67603;DHT22;54417;47.454;18.918;2023-06-22T19:15:35;25.82;80.55
67603;DHT22;54417;47.454;18.918;2023-06-22T19:20:47;25.76;81.28
67603;DHT22;54417;47.454;18.918;2023-06-22T19:25:51;25.53;81.31
67603;DHT22;54417;47.454;18.918;2023-06-22T19:31:06;25.38;81.21
67603;DHT22;54417;47.454;18.918;2023-06-22T19:36:19;25.25;81.27
67603;DHT22;54417;47.454;18.918;2023-06-22T19:41:28;25.08;81.70
67603;DHT22;54417;47.454;18.918;2023-06-22T19:46:37;24.78;82.64
67603;DHT22;54417;47.454;18.918;2023-06-22T19:51:50;24.78;83.33
67603;DHT22;54417;47.454;18.918;2023-06-22T19:57:01;24.67;83.83
67603;DHT22;54417;47.454;18.918;2023-06-22T20:02:07;24.60;84.35
67603;DHT22;54417;47.454;18.918;2023-06-22T20:07:13;24.47;84.69
67603;DHT22;54417;47.454;18.918;2023-06-22T20:12:22;24.39;84.22
67603;DHT22;54417;47.454;18.918;2023-06-22T20:17:27;24.37;85.10
67603;DHT22;54417;47.454;18.918;2023-06-22T20:22:40;24.33;85.11
67603;DHT22;54417;47.454;18.918;2023-06-22T20:27:50;24.22;85.60
67603;DHT22;54417;47.454;18.918;2023-06-22T20:33:00;24.23;85.53
67603;DHT22;54417;47.454;18.918;2023-06-22T20:38:11;24.04;86.12
67603;DHT22;54417;47.454;18.918;2023-06-22T20:43:21;23.97;86.31
67603;DHT22;54417;47.454;18.918;2023-06-22T20:48:31;23.97;85.99
67603;DHT22;54417;47.454;18.918;2023-06-22T20:53:47;23.95;86.05
67603;DHT22;54417;47.454;18.918;2023-06-22T20:58:57;23.81;86.63
67603;DHT22;54417;47.454;18.918;2023-06-22T21:04:06;23.71;86.37
67603;DHT22;54417;47.454;18.918;2023-06-22T21:09:16;23.72;86.00
67603;DHT22;54417;47.454;18.918;2023-06-22T21:14:25;23.78;85.38
67603;DHT22;54417;47.454;18.918;2023-06-22T21:19:29;24.01;83.43
67603;DHT22;54417;47.454;18.918;2023-06-22T21:24:39;24.16;83.80
67603;DHT22;54417;47.454;18.918;2023-06-22T21:29:51;24.60;81.07
67603;DHT22;54417;47.454;18.918;2023-06-22T21:34:56;24.95;79.63
67603;DHT22;54417;47.454;18.918;2023-06-22T21:40:08;25.21;78.74
67603;DHT22;54417;47.454;18.918;2023-06-22T21:45:17;25.39;78.03
67603;DHT22;54417;47.454;18.918;2023-06-22T21:50:26;25.50;77.85
67603;DHT22;54417;47.454;18.918;2023-06-22T21:55:36;25.46;77.93
67603;DHT22;54417;47.454;18.918;2023-06-22T22:00:45;25.49;77.80
67603;DHT22;54417;47.454;18.918;2023-06-22T22:05:54;25.45;78.00
67603;DHT22;54417;47.454;18.918;2023-06-22T22:11:05;25.56;77.39
67603;DHT22;54417;47.454;18.918;2023-06-22T22:16:09;25.43;77.85
67603;DHT22;54417;47.454;18.918;2023-06-22T22:21:18;25.41;77.97
67603;DHT22;54417;47.454;18.918;2023-06-22T22:26:24;25.32;78.14
67603;DHT22;54417;47.454;18.918;2023-06-22T22:31:32;25.24;78.38
67603;DHT22;54417;47.454;18.918;2023-06-22T22:36:40;25.18;78.66
67603;DHT22;54417;47.454;18.918;2023-06-22T22:41:45;25.11;78.80
67603;DHT22;54417;47.454;18.918;2023-06-22T22:46:54;25.03;78.89
67603;DHT22;54417;47.454;18.918;2023-06-22T22:51:59;24.99;79.07
67603;DHT22;54417;47.454;18.918;2023-06-22T22:57:05;24.95;79.07
67603;DHT22;54417;47.454;18.918;2023-06-22T23:02:14;24.90;79.20
67603;DHT22;54417;47.454;18.918;2023-06-22T23:07:18;24.94;79.01
67603;DHT22;54417;47.454;18.918;2023-06-22T23:12:24;24.87;79.23
67603;DHT22;54417;47.454;18.918;2023-06-22T23:17:33;24.81;79.41
67603;DHT22;54417;47.454;18.918;2023-06-22T23:22:41;24.76;79.35
67603;DHT22;54417;47.454;18.918;2023-06-22T23:27:52;24.73;79.53
67603;DHT22;54417;47.454;18.918;2023-06-22T23:33:00;24.64;79.65
67603;DHT22;54417;47.454;18.918;2023-06-22T23:38:09;24.61;79.54
67603;DHT22;54417;47.454;18.918;2023-06-22T23:43:20;24.56;79.78
67603;DHT22;54417;47.454;18.918;2023-06-22T23:48:28;24.52;79.95
67603;DHT22;54417;47.454;18.918;2023-06-22T23:53:37;24.41;79.94
67603;DHT22;54417;47.454;18.918;2023-06-22T23:58:49;24.40;80.06
